North Hanover, New Jersey
Current Conditions -  °F | °C
As of 12:23 AM on Thursday 27 Nov 2014 (Local Time) from KWRI Reporting Station
Overcast Overcast  
Wind Chill: 30°   Ceiling: 2100
Heat Index: 36°   Visibility: 10mi
Dew Point: 32°   Wind: 7mph
Humidity: 87%   Direction: 280°W
Pressure: 29.86"   Gusts: NA
Location:  40.0733°N, 74.5866°W
Report Text: KWRI 270523Z AUTO 28006KT 10SM FEW016 BKN021 BKN070 OVC095 02/00 A2986 RMK AO2
Loading
Personal Weather Stations






























Interactive Weather Map New forecast layout! Learn more

10-Day Weather Forecast

Advertisements
Track Severe Weather on mobile